sensor_id;sensor_type;location;lat;lon;timestamp;P1;durP1;ratioP1;P2;durP2;ratioP2
40707;SDS011;26392;42.696;23.350;2023-04-22T00:01:25;18.70;;;8.63;;
40707;SDS011;26392;42.696;23.350;2023-04-22T00:03:51;17.23;;;8.45;;
40707;SDS011;26392;42.696;23.350;2023-04-22T00:06:17;21.15;;;9.20;;
40707;SDS011;26392;42.696;23.350;2023-04-22T00:08:42;14.70;;;8.40;;
40707;SDS011;26392;42.696;23.350;2023-04-22T00:11:08;15.82;;;8.55;;
40707;SDS011;26392;42.696;23.350;2023-04-22T00:13:33;15.35;;;8.45;;
40707;SDS011;26392;42.696;23.350;2023-04-22T00:16:01;16.90;;;8.43;;
40707;SDS011;26392;42.696;23.350;2023-04-22T00:18:27;18.23;;;9.52;;
40707;SDS011;26392;42.696;23.350;2023-04-22T00:20:52;18.38;;;8.82;;
40707;SDS011;26392;42.696;23.350;2023-04-22T00:23:18;15.77;;;9.20;;
40707;SDS011;26392;42.696;23.350;2023-04-22T00:25:43;20.15;;;9.68;;
40707;SDS011;26392;42.696;23.350;2023-04-22T00:28:09;15.98;;;9.07;;
40707;SDS011;26392;42.696;23.350;2023-04-22T00:30:35;25.13;;;12.90;;
40707;SDS011;26392;42.696;23.350;2023-04-22T00:33:00;27.73;;;14.40;;
40707;SDS011;26392;42.696;23.350;2023-04-22T00:35:26;24.08;;;12.77;;
40707;SDS011;26392;42.696;23.350;2023-04-22T00:37:52;25.08;;;13.05;;
40707;SDS011;26392;42.696;23.350;2023-04-22T00:40:17;27.15;;;13.63;;
40707;SDS011;26392;42.696;23.350;2023-04-22T00:42:43;26.70;;;12.20;;
40707;SDS011;26392;42.696;23.350;2023-04-22T00:45:09;18.45;;;10.38;;
40707;SDS011;26392;42.696;23.350;2023-04-22T00:47:36;23.25;;;12.40;;
40707;SDS011;26392;42.696;23.350;2023-04-22T00:50:01;23.63;;;11.57;;
40707;SDS011;26392;42.696;23.350;2023-04-22T00:52:28;24.92;;;12.00;;
40707;SDS011;26392;42.696;23.350;2023-04-22T00:54:53;20.92;;;11.38;;
40707;SDS011;26392;42.696;23.350;2023-04-22T00:57:18;25.92;;;13.45;;
40707;SDS011;26392;42.696;23.350;2023-04-22T00:59:44;27.05;;;12.30;;
40707;SDS011;26392;42.696;23.350;2023-04-22T01:02:10;26.90;;;13.38;;
40707;SDS011;26392;42.696;23.350;2023-04-22T01:04:36;33.55;;;14.15;;
40707;SDS011;26392;42.696;23.350;2023-04-22T01:07:02;25.60;;;13.65;;
40707;SDS011;26392;42.696;23.350;2023-04-22T01:09:28;32.00;;;15.07;;
40707;SDS011;26392;42.696;23.350;2023-04-22T01:11:54;24.65;;;13.45;;
40707;SDS011;26392;42.696;23.350;2023-04-22T01:14:20;25.40;;;13.52;;
40707;SDS011;26392;42.696;23.350;2023-04-22T01:16:46;25.80;;;13.35;;
40707;SDS011;26392;42.696;23.350;2023-04-22T01:19:12;29.17;;;13.60;;
40707;SDS011;26392;42.696;23.350;2023-04-22T01:21:38;24.35;;;13.82;;
40707;SDS011;26392;42.696;23.350;2023-04-22T01:24:05;26.58;;;12.57;;
40707;SDS011;26392;42.696;23.350;2023-04-22T01:26:31;26.27;;;13.52;;
40707;SDS011;26392;42.696;23.350;2023-04-22T01:28:57;28.48;;;13.05;;
40707;SDS011;26392;42.696;23.350;2023-04-22T01:31:22;25.63;;;12.75;;
40707;SDS011;26392;42.696;23.350;2023-04-22T01:33:48;26.08;;;13.10;;
40707;SDS011;26392;42.696;23.350;2023-04-22T01:36:15;22.90;;;12.20;;
40707;SDS011;26392;42.696;23.350;2023-04-22T01:38:41;22.20;;;11.73;;
40707;SDS011;26392;42.696;23.350;2023-04-22T01:41:06;22.50;;;11.90;;
40707;SDS011;26392;42.696;23.350;2023-04-22T01:43:33;21.77;;;11.35;;
40707;SDS011;26392;42.696;23.350;2023-04-22T01:46:01;21.50;;;11.07;;
40707;SDS011;26392;42.696;23.350;2023-04-22T01:48:29;19.48;;;10.48;;
40707;SDS011;26392;42.696;23.350;2023-04-22T01:50:54;23.48;;;10.57;;
40707;SDS011;26392;42.696;23.350;2023-04-22T01:53:20;19.35;;;11.43;;
40707;SDS011;26392;42.696;23.350;2023-04-22T01:55:45;21.48;;;11.40;;
40707;SDS011;26392;42.696;23.350;2023-04-22T01:58:11;21.98;;;10.57;;
40707;SDS011;26392;42.696;23.350;2023-04-22T02:00:36;19.88;;;10.32;;
40707;SDS011;26392;42.696;23.350;2023-04-22T02:03:02;24.88;;;11.32;;
40707;SDS011;26392;42.696;23.350;2023-04-22T02:05:27;21.60;;;10.75;;
40707;SDS011;26392;42.696;23.350;2023-04-22T02:07:53;20.70;;;10.52;;
40707;SDS011;26392;42.696;23.350;2023-04-22T02:10:19;19.85;;;10.20;;
40707;SDS011;26392;42.696;23.350;2023-04-22T02:12:44;20.75;;;10.38;;
40707;SDS011;26392;42.696;23.350;2023-04-22T02:15:10;25.52;;;11.75;;
40707;SDS011;26392;42.696;23.350;2023-04-22T02:17:36;18.98;;;9.50;;
40707;SDS011;26392;42.696;23.350;2023-04-22T02:20:02;18.73;;;10.25;;
40707;SDS011;26392;42.696;23.350;2023-04-22T02:22:28;22.02;;;10.77;;
40707;SDS011;26392;42.696;23.350;2023-04-22T02:24:54;21.08;;;10.23;;
40707;SDS011;26392;42.696;23.350;2023-04-22T02:27:20;22.00;;;10.40;;
40707;SDS011;26392;42.696;23.350;2023-04-22T02:29:45;21.15;;;11.18;;
40707;SDS011;26392;42.696;23.350;2023-04-22T02:32:11;24.52;;;11.45;;
40707;SDS011;26392;42.696;23.350;2023-04-22T02:34:37;25.05;;;11.32;;
40707;SDS011;26392;42.696;23.350;2023-04-22T02:37:02;18.80;;;10.65;;
40707;SDS011;26392;42.696;23.350;2023-04-22T02:39:28;22.60;;;12.02;;
40707;SDS011;26392;42.696;23.350;2023-04-22T02:41:53;22.40;;;11.70;;
40707;SDS011;26392;42.696;23.350;2023-04-22T02:44:19;19.45;;;11.25;;
40707;SDS011;26392;42.696;23.350;2023-04-22T02:46:44;19.80;;;11.30;;
40707;SDS011;26392;42.696;23.350;2023-04-22T02:49:09;22.23;;;11.75;;
40707;SDS011;26392;42.696;23.350;2023-04-22T02:51:36;21.40;;;11.45;;
40707;SDS011;26392;42.696;23.350;2023-04-22T02:54:03;23.00;;;11.90;;
40707;SDS011;26392;42.696;23.350;2023-04-22T02:56:28;25.25;;;12.82;;
40707;SDS011;26392;42.696;23.350;2023-04-22T02:58:53;23.80;;;12.95;;
40707;SDS011;26392;42.696;23.350;2023-04-22T03:01:19;21.65;;;11.50;;
40707;SDS011;26392;42.696;23.350;2023-04-22T03:03:44;26.90;;;11.90;;
40707;SDS011;26392;42.696;23.350;2023-04-22T03:06:10;22.55;;;11.02;;
40707;SDS011;26392;42.696;23.350;2023-04-22T03:08:35;23.13;;;12.55;;
40707;SDS011;26392;42.696;23.350;2023-04-22T03:11:01;23.23;;;11.90;;
40707;SDS011;26392;42.696;23.350;2023-04-22T03:13:26;24.85;;;11.40;;
40707;SDS011;26392;42.696;23.350;2023-04-22T03:15:51;22.00;;;10.88;;
40707;SDS011;26392;42.696;23.350;2023-04-22T03:18:17;22.75;;;11.10;;
40707;SDS011;26392;42.696;23.350;2023-04-22T03:20:42;21.02;;;11.27;;
40707;SDS011;26392;42.696;23.350;2023-04-22T03:23:08;21.60;;;11.35;;
40707;SDS011;26392;42.696;23.350;2023-04-22T03:25:34;20.35;;;11.32;;
40707;SDS011;26392;42.696;23.350;2023-04-22T03:28:00;22.05;;;11.20;;
40707;SDS011;26392;42.696;23.350;2023-04-22T03:30:25;25.33;;;12.20;;
40707;SDS011;26392;42.696;23.350;2023-04-22T03:32:51;23.98;;;11.48;;
40707;SDS011;26392;42.696;23.350;2023-04-22T03:35:17;27.02;;;13.45;;
40707;SDS011;26392;42.696;23.350;2023-04-22T03:37:46;31.45;;;14.32;;
40707;SDS011;26392;42.696;23.350;2023-04-22T03:40:11;35.72;;;16.50;;
40707;SDS011;26392;42.696;23.350;2023-04-22T03:42:37;32.15;;;17.02;;
40707;SDS011;26392;42.696;23.350;2023-04-22T03:45:02;32.13;;;16.95;;
40707;SDS011;26392;42.696;23.350;2023-04-22T03:47:28;35.67;;;17.27;;
40707;SDS011;26392;42.696;23.350;2023-04-22T03:49:53;35.33;;;16.92;;
40707;SDS011;26392;42.696;23.350;2023-04-22T03:52:37;32.50;;;17.48;;
40707;SDS011;26392;42.696;23.350;2023-04-22T03:55:03;33.40;;;16.40;;
40707;SDS011;26392;42.696;23.350;2023-04-22T03:57:28;35.22;;;16.40;;
40707;SDS011;26392;42.696;23.350;2023-04-22T03:59:54;33.47;;;16.15;;
40707;SDS011;26392;42.696;23.350;2023-04-22T04:02:19;35.47;;;16.40;;
40707;SDS011;26392;42.696;23.350;2023-04-22T04:04:45;30.50;;;14.93;;
40707;SDS011;26392;42.696;23.350;2023-04-22T04:07:10;31.02;;;15.15;;
40707;SDS011;26392;42.696;23.350;2023-04-22T04:09:35;30.58;;;13.63;;
40707;SDS011;26392;42.696;23.350;2023-04-22T04:12:01;27.63;;;14.85;;
40707;SDS011;26392;42.696;23.350;2023-04-22T04:14:27;24.50;;;12.68;;
40707;SDS011;26392;42.696;23.350;2023-04-22T04:16:52;23.77;;;12.77;;
40707;SDS011;26392;42.696;23.350;2023-04-22T04:19:18;26.25;;;11.77;;
40707;SDS011;26392;42.696;23.350;2023-04-22T04:21:43;29.10;;;12.80;;
40707;SDS011;26392;42.696;23.350;2023-04-22T04:24:09;22.90;;;12.18;;
40707;SDS011;26392;42.696;23.350;2023-04-22T04:26:34;20.70;;;10.65;;
40707;SDS011;26392;42.696;23.350;2023-04-22T04:29:00;21.48;;;11.30;;
40707;SDS011;26392;42.696;23.350;2023-04-22T04:31:29;23.88;;;11.18;;
40707;SDS011;26392;42.696;23.350;2023-04-22T04:33:55;21.80;;;11.30;;
40707;SDS011;26392;42.696;23.350;2023-04-22T04:36:21;21.17;;;11.25;;
40707;SDS011;26392;42.696;23.350;2023-04-22T04:38:51;17.67;;;9.05;;
40707;SDS011;26392;42.696;23.350;2023-04-22T04:41:20;21.25;;;10.10;;
40707;SDS011;26392;42.696;23.350;2023-04-22T04:43:46;14.77;;;8.93;;
40707;SDS011;26392;42.696;23.350;2023-04-22T04:46:12;22.02;;;10.13;;
40707;SDS011;26392;42.696;23.350;2023-04-22T04:48:39;18.65;;;10.60;;
40707;SDS011;26392;42.696;23.350;2023-04-22T04:51:07;17.85;;;10.05;;
40707;SDS011;26392;42.696;23.350;2023-04-22T04:53:33;22.15;;;10.88;;
40707;SDS011;26392;42.696;23.350;2023-04-22T04:55:58;19.27;;;10.57;;
40707;SDS011;26392;42.696;23.350;2023-04-22T04:58:24;19.40;;;9.77;;
40707;SDS011;26392;42.696;23.350;2023-04-22T05:00:49;26.25;;;12.10;;
40707;SDS011;26392;42.696;23.350;2023-04-22T05:03:15;27.00;;;12.32;;
40707;SDS011;26392;42.696;23.350;2023-04-22T05:05:41;20.45;;;11.63;;
40707;SDS011;26392;42.696;23.350;2023-04-22T05:08:06;30.30;;;11.35;;
40707;SDS011;26392;42.696;23.350;2023-04-22T05:10:32;20.45;;;10.18;;
40707;SDS011;26392;42.696;23.350;2023-04-22T05:12:57;17.30;;;9.23;;
40707;SDS011;26392;42.696;23.350;2023-04-22T05:15:23;16.90;;;9.10;;
40707;SDS011;26392;42.696;23.350;2023-04-22T05:17:48;20.13;;;10.07;;
40707;SDS011;26392;42.696;23.350;2023-04-22T05:20:13;17.23;;;9.50;;
40707;SDS011;26392;42.696;23.350;2023-04-22T05:22:39;18.65;;;9.43;;
40707;SDS011;26392;42.696;23.350;2023-04-22T05:25:07;22.42;;;10.07;;
40707;SDS011;26392;42.696;23.350;2023-04-22T05:27:33;17.42;;;8.65;;
40707;SDS011;26392;42.696;23.350;2023-04-22T05:29:58;16.60;;;9.68;;
40707;SDS011;26392;42.696;23.350;2023-04-22T05:32:24;21.55;;;9.75;;
40707;SDS011;26392;42.696;23.350;2023-04-22T05:34:49;18.00;;;8.60;;
40707;SDS011;26392;42.696;23.350;2023-04-22T05:37:15;19.70;;;9.13;;
40707;SDS011;26392;42.696;23.350;2023-04-22T05:39:40;18.30;;;8.57;;
40707;SDS011;26392;42.696;23.350;2023-04-22T05:42:06;13.95;;;8.23;;
40707;SDS011;26392;42.696;23.350;2023-04-22T05:44:31;14.93;;;8.35;;
40707;SDS011;26392;42.696;23.350;2023-04-22T05:46:56;17.02;;;8.82;;
40707;SDS011;26392;42.696;23.350;2023-04-22T05:49:22;14.30;;;8.13;;
40707;SDS011;26392;42.696;23.350;2023-04-22T05:51:47;13.73;;;8.93;;
40707;SDS011;26392;42.696;23.350;2023-04-22T05:54:12;15.10;;;8.90;;
40707;SDS011;26392;42.696;23.350;2023-04-22T05:56:38;16.77;;;9.38;;
40707;SDS011;26392;42.696;23.350;2023-04-22T05:59:03;18.08;;;9.00;;
40707;SDS011;26392;42.696;23.350;2023-04-22T06:01:29;18.27;;;8.70;;
40707;SDS011;26392;42.696;23.350;2023-04-22T06:03:54;18.20;;;9.10;;
40707;SDS011;26392;42.696;23.350;2023-04-22T06:06:21;14.35;;;8.18;;
40707;SDS011;26392;42.696;23.350;2023-04-22T06:08:47;16.20;;;8.27;;
40707;SDS011;26392;42.696;23.350;2023-04-22T06:11:13;14.98;;;8.02;;
40707;SDS011;26392;42.696;23.350;2023-04-22T06:13:38;15.82;;;8.27;;
40707;SDS011;26392;42.696;23.350;2023-04-22T06:16:04;15.50;;;8.93;;
40707;SDS011;26392;42.696;23.350;2023-04-22T06:18:30;15.75;;;7.88;;
40707;SDS011;26392;42.696;23.350;2023-04-22T06:20:56;14.00;;;8.00;;
40707;SDS011;26392;42.696;23.350;2023-04-22T06:23:22;14.43;;;7.88;;
40707;SDS011;26392;42.696;23.350;2023-04-22T06:25:47;18.52;;;7.72;;
40707;SDS011;26392;42.696;23.350;2023-04-22T06:28:13;12.98;;;7.45;;
40707;SDS011;26392;42.696;23.350;2023-04-22T06:30:38;13.73;;;6.95;;
40707;SDS011;26392;42.696;23.350;2023-04-22T06:33:03;12.85;;;7.78;;
40707;SDS011;26392;42.696;23.350;2023-04-22T06:35:29;17.40;;;7.68;;
40707;SDS011;26392;42.696;23.350;2023-04-22T06:37:55;13.15;;;7.38;;
40707;SDS011;26392;42.696;23.350;2023-04-22T06:40:20;15.40;;;8.10;;
40707;SDS011;26392;42.696;23.350;2023-04-22T06:42:46;12.50;;;7.30;;
40707;SDS011;26392;42.696;23.350;2023-04-22T06:45:11;12.45;;;8.15;;
40707;SDS011;26392;42.696;23.350;2023-04-22T06:47:40;12.48;;;7.50;;
40707;SDS011;26392;42.696;23.350;2023-04-22T06:50:06;11.68;;;7.15;;
40707;SDS011;26392;42.696;23.350;2023-04-22T06:52:33;13.00;;;7.32;;
40707;SDS011;26392;42.696;23.350;2023-04-22T06:54:58;14.05;;;7.45;;
40707;SDS011;26392;42.696;23.350;2023-04-22T06:57:24;12.98;;;7.70;;
40707;SDS011;26392;42.696;23.350;2023-04-22T06:59:49;12.45;;;7.25;;
40707;SDS011;26392;42.696;23.350;2023-04-22T07:02:15;11.43;;;6.70;;
40707;SDS011;26392;42.696;23.350;2023-04-22T07:04:40;11.45;;;6.68;;
40707;SDS011;26392;42.696;23.350;2023-04-22T07:07:06;10.70;;;6.18;;
40707;SDS011;26392;42.696;23.350;2023-04-22T07:09:31;11.38;;;7.18;;
40707;SDS011;26392;42.696;23.350;2023-04-22T07:11:57;17.80;;;7.50;;
40707;SDS011;26392;42.696;23.350;2023-04-22T07:14:24;12.43;;;7.22;;
40707;SDS011;26392;42.696;23.350;2023-04-22T07:16:50;10.70;;;8.00;;
40707;SDS011;26392;42.696;23.350;2023-04-22T07:19:16;12.80;;;7.80;;
40707;SDS011;26392;42.696;23.350;2023-04-22T07:21:41;15.35;;;7.55;;
40707;SDS011;26392;42.696;23.350;2023-04-22T07:24:07;11.43;;;7.25;;
40707;SDS011;26392;42.696;23.350;2023-04-22T07:26:35;14.48;;;7.47;;
40707;SDS011;26392;42.696;23.350;2023-04-22T07:29:02;14.32;;;8.02;;
40707;SDS011;26392;42.696;23.350;2023-04-22T07:31:27;12.32;;;7.10;;
40707;SDS011;26392;42.696;23.350;2023-04-22T07:33:53;12.48;;;7.80;;
40707;SDS011;26392;42.696;23.350;2023-04-22T07:36:18;10.50;;;6.90;;
40707;SDS011;26392;42.696;23.350;2023-04-22T07:38:44;12.45;;;6.65;;
40707;SDS011;26392;42.696;23.350;2023-04-22T07:41:09;11.82;;;6.20;;
40707;SDS011;26392;42.696;23.350;2023-04-22T07:43:35;9.75;;;6.68;;
40707;SDS011;26392;42.696;23.350;2023-04-22T07:46:00;10.90;;;6.22;;
40707;SDS011;26392;42.696;23.350;2023-04-22T07:48:26;15.18;;;6.32;;
40707;SDS011;26392;42.696;23.350;2023-04-22T07:50:52;11.00;;;6.00;;
40707;SDS011;26392;42.696;23.350;2023-04-22T07:53:17;8.07;;;5.35;;
40707;SDS011;26392;42.696;23.350;2023-04-22T07:55:42;6.25;;;4.53;;
40707;SDS011;26392;42.696;23.350;2023-04-22T07:58:08;8.13;;;5.38;;
40707;SDS011;26392;42.696;23.350;2023-04-22T08:00:34;11.18;;;5.03;;
40707;SDS011;26392;42.696;23.350;2023-04-22T08:03:00;10.63;;;5.60;;
40707;SDS011;26392;42.696;23.350;2023-04-22T08:05:26;8.38;;;4.93;;
40707;SDS011;26392;42.696;23.350;2023-04-22T08:07:51;10.98;;;5.22;;
40707;SDS011;26392;42.696;23.350;2023-04-22T08:10:17;9.68;;;5.25;;
40707;SDS011;26392;42.696;23.350;2023-04-22T08:12:42;8.40;;;4.32;;
40707;SDS011;26392;42.696;23.350;2023-04-22T08:15:08;8.73;;;4.53;;
40707;SDS011;26392;42.696;23.350;2023-04-22T08:17:33;9.68;;;4.45;;
40707;SDS011;26392;42.696;23.350;2023-04-22T08:19:59;9.65;;;4.85;;
40707;SDS011;26392;42.696;23.350;2023-04-22T08:22:24;6.85;;;4.30;;
40707;SDS011;26392;42.696;23.350;2023-04-22T08:24:51;6.75;;;4.15;;
40707;SDS011;26392;42.696;23.350;2023-04-22T08:27:17;5.40;;;3.63;;
40707;SDS011;26392;42.696;23.350;2023-04-22T08:29:43;6.72;;;3.95;;
40707;SDS011;26392;42.696;23.350;2023-04-22T08:32:08;9.38;;;3.40;;
40707;SDS011;26392;42.696;23.350;2023-04-22T08:34:34;5.95;;;3.42;;
40707;SDS011;26392;42.696;23.350;2023-04-22T08:36:59;9.30;;;4.70;;
40707;SDS011;26392;42.696;23.350;2023-04-22T08:39:25;6.13;;;3.90;;
40707;SDS011;26392;42.696;23.350;2023-04-22T08:41:50;7.82;;;4.20;;
40707;SDS011;26392;42.696;23.350;2023-04-22T08:44:17;8.93;;;3.80;;
40707;SDS011;26392;42.696;23.350;2023-04-22T08:46:43;6.57;;;4.10;;
40707;SDS011;26392;42.696;23.350;2023-04-22T08:49:12;5.63;;;3.67;;
40707;SDS011;26392;42.696;23.350;2023-04-22T08:51:39;9.80;;;4.22;;
40707;SDS011;26392;42.696;23.350;2023-04-22T08:54:06;6.53;;;3.65;;
40707;SDS011;26392;42.696;23.350;2023-04-22T08:56:31;4.10;;;3.25;;
40707;SDS011;26392;42.696;23.350;2023-04-22T08:58:58;6.35;;;3.47;;
40707;SDS011;26392;42.696;23.350;2023-04-22T09:01:24;9.10;;;4.05;;
40707;SDS011;26392;42.696;23.350;2023-04-22T09:03:52;4.00;;;3.50;;
40707;SDS011;26392;42.696;23.350;2023-04-22T09:06:21;11.10;;;4.00;;
40707;SDS011;26392;42.696;23.350;2023-04-22T09:08:47;5.68;;;3.92;;
40707;SDS011;26392;42.696;23.350;2023-04-22T09:11:14;6.30;;;3.58;;
40707;SDS011;26392;42.696;23.350;2023-04-22T09:13:41;4.57;;;3.55;;
40707;SDS011;26392;42.696;23.350;2023-04-22T09:16:06;6.00;;;3.97;;
40707;SDS011;26392;42.696;23.350;2023-04-22T09:18:38;8.65;;;4.03;;
40707;SDS011;26392;42.696;23.350;2023-04-22T09:21:05;6.40;;;4.18;;
40707;SDS011;26392;42.696;23.350;2023-04-22T09:23:30;7.20;;;4.00;;
40707;SDS011;26392;42.696;23.350;2023-04-22T09:25:56;9.52;;;4.25;;
40707;SDS011;26392;42.696;23.350;2023-04-22T09:28:22;10.95;;;3.97;;
40707;SDS011;26392;42.696;23.350;2023-04-22T09:30:47;6.60;;;4.38;;
40707;SDS011;26392;42.696;23.350;2023-04-22T09:33:13;7.07;;;4.25;;
40707;SDS011;26392;42.696;23.350;2023-04-22T09:35:39;7.05;;;4.13;;
40707;SDS011;26392;42.696;23.350;2023-04-22T09:38:06;8.88;;;3.80;;
40707;SDS011;26392;42.696;23.350;2023-04-22T09:40:33;5.78;;;3.92;;
40707;SDS011;26392;42.696;23.350;2023-04-22T09:43:06;8.85;;;4.15;;
40707;SDS011;26392;42.696;23.350;2023-04-22T09:45:37;6.10;;;3.95;;
40707;SDS011;26392;42.696;23.350;2023-04-22T09:48:13;7.50;;;4.00;;
40707;SDS011;26392;42.696;23.350;2023-04-22T09:50:48;6.45;;;4.03;;
40707;SDS011;26392;42.696;23.350;2023-04-22T09:53:16;5.43;;;2.97;;
40707;SDS011;26392;42.696;23.350;2023-04-22T09:55:43;3.17;;;1.63;;
40707;SDS011;26392;42.696;23.350;2023-04-22T09:58:12;5.72;;;1.98;;
40707;SDS011;26392;42.696;23.350;2023-04-22T10:00:40;3.47;;;1.83;;
40707;SDS011;26392;42.696;23.350;2023-04-22T10:03:11;3.33;;;1.50;;
40707;SDS011;26392;42.696;23.350;2023-04-22T10:05:36;4.65;;;1.80;;
40707;SDS011;26392;42.696;23.350;2023-04-22T10:08:03;2.22;;;1.63;;
40707;SDS011;26392;42.696;23.350;2023-04-22T10:10:29;3.88;;;1.77;;
40707;SDS011;26392;42.696;23.350;2023-04-22T10:12:55;3.38;;;1.90;;
40707;SDS011;26392;42.696;23.350;2023-04-22T10:15:21;3.53;;;1.45;;
40707;SDS011;26392;42.696;23.350;2023-04-22T10:17:47;2.78;;;1.73;;
40707;SDS011;26392;42.696;23.350;2023-04-22T10:20:16;2.72;;;1.20;;
40707;SDS011;26392;42.696;23.350;2023-04-22T10:22:44;2.80;;;1.60;;
40707;SDS011;26392;42.696;23.350;2023-04-22T10:25:20;3.80;;;1.63;;
40707;SDS011;26392;42.696;23.350;2023-04-22T10:28:21;1.63;;;1.25;;
40707;SDS011;26392;42.696;23.350;2023-04-22T10:30:40;1.40;;;1.30;;
40707;SDS011;26392;42.696;23.350;2023-04-22T10:36:14;1.23;;;1.13;;
40707;SDS011;26392;42.696;23.350;2023-04-22T10:41:27;1.80;;;1.27;;
40707;SDS011;26392;42.696;23.350;2023-04-22T10:43:58;2.05;;;1.50;;
40707;SDS011;26392;42.696;23.350;2023-04-22T10:48:57;1.42;;;1.15;;
40707;SDS011;26392;42.696;23.350;2023-04-22T10:54:02;2.28;;;1.52;;
40707;SDS011;26392;42.696;23.350;2023-04-22T10:56:28;2.33;;;1.60;;
40707;SDS011;26392;42.696;23.350;2023-04-22T10:58:54;2.45;;;1.70;;
40707;SDS011;26392;42.696;23.350;2023-04-22T11:01:20;2.60;;;1.90;;
40707;SDS011;26392;42.696;23.350;2023-04-22T11:03:46;2.70;;;1.73;;
40707;SDS011;26392;42.696;23.350;2023-04-22T11:06:15;1.70;;;1.55;;
40707;SDS011;26392;42.696;23.350;2023-04-22T11:08:48;2.97;;;1.40;;
40707;SDS011;26392;42.696;23.350;2023-04-22T11:11:17;2.38;;;1.58;;
40707;SDS011;26392;42.696;23.350;2023-04-22T11:13:43;2.67;;;1.15;;
40707;SDS011;26392;42.696;23.350;2023-04-22T11:16:11;1.55;;;1.25;;
40707;SDS011;26392;42.696;23.350;2023-04-22T11:18:37;1.90;;;1.40;;
40707;SDS011;26392;42.696;23.350;2023-04-22T11:21:05;2.00;;;1.02;;
40707;SDS011;26392;42.696;23.350;2023-04-22T11:23:32;1.67;;;1.50;;
40707;SDS011;26392;42.696;23.350;2023-04-22T11:26:03;2.22;;;1.13;;
40707;SDS011;26392;42.696;23.350;2023-04-22T11:28:30;1.50;;;1.40;;
40707;SDS011;26392;42.696;23.350;2023-04-22T11:31:02;2.35;;;1.40;;
40707;SDS011;26392;42.696;23.350;2023-04-22T11:33:31;1.30;;;1.20;;
40707;SDS011;26392;42.696;23.350;2023-04-22T11:36:00;2.05;;;1.50;;
40707;SDS011;26392;42.696;23.350;2023-04-22T11:38:25;2.30;;;1.30;;
40707;SDS011;26392;42.696;23.350;2023-04-22T11:40:53;1.88;;;1.30;;
40707;SDS011;26392;42.696;23.350;2023-04-22T11:43:19;3.33;;;1.70;;
40707;SDS011;26392;42.696;23.350;2023-04-22T11:45:44;2.45;;;1.50;;
40707;SDS011;26392;42.696;23.350;2023-04-22T11:48:10;1.65;;;1.38;;
40707;SDS011;26392;42.696;23.350;2023-04-22T11:50:36;3.03;;;1.55;;
40707;SDS011;26392;42.696;23.350;2023-04-22T11:53:04;2.75;;;1.63;;
40707;SDS011;26392;42.696;23.350;2023-04-22T11:55:38;5.38;;;2.03;;
40707;SDS011;26392;42.696;23.350;2023-04-22T12:00:33;3.08;;;1.73;;
40707;SDS011;26392;42.696;23.350;2023-04-22T12:03:18;2.83;;;1.70;;
40707;SDS011;26392;42.696;23.350;2023-04-22T12:05:55;2.72;;;1.85;;
40707;SDS011;26392;42.696;23.350;2023-04-22T12:08:24;1.98;;;1.60;;
40707;SDS011;26392;42.696;23.350;2023-04-22T12:10:56;3.40;;;1.98;;
40707;SDS011;26392;42.696;23.350;2023-04-22T12:16:05;4.40;;;1.95;;
40707;SDS011;26392;42.696;23.350;2023-04-22T12:18:40;3.47;;;1.80;;
40707;SDS011;26392;42.696;23.350;2023-04-22T12:21:14;2.53;;;2.00;;
40707;SDS011;26392;42.696;23.350;2023-04-22T12:26:07;2.58;;;1.70;;
40707;SDS011;26392;42.696;23.350;2023-04-22T12:28:33;4.95;;;1.88;;
40707;SDS011;26392;42.696;23.350;2023-04-22T12:30:58;3.80;;;1.90;;
40707;SDS011;26392;42.696;23.350;2023-04-22T12:33:24;4.45;;;2.38;;
40707;SDS011;26392;42.696;23.350;2023-04-22T12:35:50;4.07;;;2.58;;
40707;SDS011;26392;42.696;23.350;2023-04-22T12:38:16;2.65;;;2.40;;
40707;SDS011;26392;42.696;23.350;2023-04-22T12:40:42;5.05;;;2.70;;
40707;SDS011;26392;42.696;23.350;2023-04-22T12:43:08;3.53;;;2.30;;
40707;SDS011;26392;42.696;23.350;2023-04-22T12:45:33;3.67;;;2.47;;
40707;SDS011;26392;42.696;23.350;2023-04-22T12:47:58;3.03;;;2.25;;
40707;SDS011;26392;42.696;23.350;2023-04-22T12:50:24;3.10;;;2.53;;
40707;SDS011;26392;42.696;23.350;2023-04-22T12:52:49;5.60;;;2.22;;
40707;SDS011;26392;42.696;23.350;2023-04-22T12:55:15;2.10;;;1.88;;
40707;SDS011;26392;42.696;23.350;2023-04-22T12:57:41;2.75;;;1.83;;
40707;SDS011;26392;42.696;23.350;2023-04-22T13:00:08;2.45;;;1.77;;
40707;SDS011;26392;42.696;23.350;2023-04-22T13:02:39;1.40;;;1.30;;
40707;SDS011;26392;42.696;23.350;2023-04-22T13:05:05;2.22;;;1.50;;
40707;SDS011;26392;42.696;23.350;2023-04-22T13:07:31;1.42;;;1.33;;
40707;SDS011;26392;42.696;23.350;2023-04-22T13:09:56;2.03;;;1.30;;
40707;SDS011;26392;42.696;23.350;2023-04-22T13:12:22;3.92;;;1.20;;
40707;SDS011;26392;42.696;23.350;2023-04-22T13:14:48;1.77;;;1.55;;
40707;SDS011;26392;42.696;23.350;2023-04-22T13:17:13;3.45;;;1.73;;
40707;SDS011;26392;42.696;23.350;2023-04-22T13:19:39;2.03;;;1.65;;
40707;SDS011;26392;42.696;23.350;2023-04-22T13:22:04;2.53;;;1.52;;
40707;SDS011;26392;42.696;23.350;2023-04-22T13:24:30;2.33;;;1.52;;
40707;SDS011;26392;42.696;23.350;2023-04-22T13:26:55;1.60;;;1.50;;
40707;SDS011;26392;42.696;23.350;2023-04-22T13:29:21;1.75;;;1.30;;
40707;SDS011;26392;42.696;23.350;2023-04-22T13:31:47;2.30;;;1.48;;
40707;SDS011;26392;42.696;23.350;2023-04-22T13:34:12;1.55;;;1.45;;
40707;SDS011;26392;42.696;23.350;2023-04-22T13:36:40;2.50;;;1.67;;
40707;SDS011;26392;42.696;23.350;2023-04-22T13:39:06;1.83;;;1.63;;
40707;SDS011;26392;42.696;23.350;2023-04-22T13:41:32;3.00;;;1.77;;
40707;SDS011;26392;42.696;23.350;2023-04-22T13:43:58;3.40;;;1.38;;
40707;SDS011;26392;42.696;23.350;2023-04-22T13:46:23;3.10;;;1.63;;
40707;SDS011;26392;42.696;23.350;2023-04-22T13:48:49;3.60;;;1.60;;
40707;SDS011;26392;42.696;23.350;2023-04-22T13:51:14;1.92;;;1.40;;
40707;SDS011;26392;42.696;23.350;2023-04-22T13:53:40;3.28;;;1.40;;
40707;SDS011;26392;42.696;23.350;2023-04-22T13:56:05;1.67;;;1.40;;
40707;SDS011;26392;42.696;23.350;2023-04-22T13:58:31;1.60;;;1.23;;
40707;SDS011;26392;42.696;23.350;2023-04-22T14:00:56;1.65;;;1.20;;
40707;SDS011;26392;42.696;23.350;2023-04-22T14:03:22;2.78;;;1.33;;
40707;SDS011;26392;42.696;23.350;2023-04-22T14:05:47;3.25;;;1.80;;
40707;SDS011;26392;42.696;23.350;2023-04-22T14:08:13;1.92;;;1.65;;
40707;SDS011;26392;42.696;23.350;2023-04-22T14:10:38;2.90;;;1.70;;
40707;SDS011;26392;42.696;23.350;2023-04-22T14:13:04;1.85;;;1.60;;
40707;SDS011;26392;42.696;23.350;2023-04-22T14:15:29;2.63;;;1.75;;
40707;SDS011;26392;42.696;23.350;2023-04-22T14:17:55;2.58;;;1.70;;
40707;SDS011;26392;42.696;23.350;2023-04-22T14:20:22;3.72;;;2.08;;
40707;SDS011;26392;42.696;23.350;2023-04-22T14:22:49;2.58;;;1.80;;
40707;SDS011;26392;42.696;23.350;2023-04-22T14:25:14;3.85;;;1.85;;
40707;SDS011;26392;42.696;23.350;2023-04-22T14:27:40;5.53;;;1.98;;
40707;SDS011;26392;42.696;23.350;2023-04-22T14:30:05;3.38;;;1.90;;
40707;SDS011;26392;42.696;23.350;2023-04-22T14:32:32;5.63;;;2.03;;
40707;SDS011;26392;42.696;23.350;2023-04-22T14:34:58;3.30;;;2.10;;
40707;SDS011;26392;42.696;23.350;2023-04-22T14:37:24;4.15;;;2.20;;